Time;durP1;ratioP1;P1;durP2;ratioP2;P2;SDS_P1;SDS_P2;PMS_P1;PMS_P2;Temp;Humidity;BMP_temperature;BMP_pressure;BME280_temperature;BME280_humidity;BME280_pressure;Samples;Min_cycle;Max_cycle;Signal;HPM_P1;HPM_P2
2021/08/12 00:01:22;;;;;;;8.57;4.82;;;16.80;90.00;;;;;;2609427;54;20035;-71
2021/08/12 00:03:49;;;;;;;4.95;4.47;;;16.80;90.10;;;;;;2609696;54;20034;-71
2021/08/12 00:06:15;;;;;;;6.13;4.82;;;16.70;90.00;;;;;;2610721;54;20049;-70
2021/08/12 00:08:40;;;;;;;5.30;4.65;;;16.70;89.80;;;;;;2610337;54;20069;-70
2021/08/12 00:11:06;;;;;;;10.88;4.72;;;16.60;89.60;;;;;;2609791;54;20030;-70
2021/08/12 00:13:32;;;;;;;6.57;4.50;;;16.60;89.80;;;;;;2610921;54;20657;-70
2021/08/12 00:15:59;;;;;;;5.88;4.65;;;16.60;90.10;;;;;;2610245;54;20177;-70
2021/08/12 00:18:26;;;;;;;7.47;5.35;;;16.60;89.90;;;;;;2610740;39;20339;-71
2021/08/12 00:20:52;;;;;;;6.15;4.97;;;16.50;89.90;;;;;;2610574;54;20030;-71
2021/08/12 00:23:18;;;;;;;7.38;6.60;;;16.50;90.30;;;;;;2610218;54;20150;-70
2021/08/12 00:25:45;;;;;;;7.45;6.60;;;16.50;90.70;;;;;;2610180;54;20117;-71
2021/08/12 00:28:12;;;;;;;11.20;7.60;;;16.60;91.10;;;;;;2610308;54;20129;-70
2021/08/12 00:30:37;;;;;;;9.75;6.88;;;16.60;91.30;;;;;;2609555;54;20641;-69
2021/08/12 00:33:03;;;;;;;8.15;7.10;;;16.60;91.50;;;;;;2610578;54;20570;-70
2021/08/12 00:35:29;;;;;;;8.32;6.82;;;16.60;91.60;;;;;;2609286;54;20027;-70
2021/08/12 00:37:55;;;;;;;10.70;7.72;;;16.60;91.70;;;;;;2611137;54;21205;-70
2021/08/12 00:40:25;;;;;;;7.97;6.63;;;16.60;91.70;;;;;;2609498;39;20970;-70
2021/08/12 00:42:52;;;;;;;7.20;6.22;;;16.70;91.60;;;;;;2609895;54;20056;-70
2021/08/12 00:45:18;;;;;;;8.90;7.00;;;16.70;91.40;;;;;;2609675;54;20142;-70
2021/08/12 00:47:45;;;;;;;10.65;6.55;;;16.70;91.30;;;;;;2609339;39;20438;-71
2021/08/12 00:50:11;;;;;;;7.50;6.70;;;16.70;91.30;;;;;;2609419;54;20114;-70
2021/08/12 00:52:39;;;;;;;8.15;7.18;;;16.70;91.50;;;;;;2609348;54;20109;-70
2021/08/12 00:55:07;;;;;;;10.10;6.72;;;16.70;91.50;;;;;;2609239;54;20585;-70
2021/08/12 00:57:34;;;;;;;9.25;7.03;;;16.70;91.50;;;;;;2610719;54;20041;-71
2021/08/12 01:00:00;;;;;;;9.20;6.95;;;16.70;91.50;;;;;;2608898;54;20027;-71
2021/08/12 01:02:27;;;;;;;7.72;6.93;;;16.70;91.50;;;;;;2610336;54;20042;-71
2021/08/12 01:04:53;;;;;;;8.68;7.05;;;16.70;91.40;;;;;;2609468;54;20058;-70
2021/08/12 01:07:21;;;;;;;9.35;7.00;;;16.70;91.20;;;;;;2610532;39;20438;-71
2021/08/12 01:09:50;;;;;;;9.13;6.75;;;16.70;91.30;;;;;;2609347;54;20030;-71
2021/08/12 01:12:37;;;;;;;6.10;5.22;;;16.70;91.40;;;;;;2609233;54;20030;-70
2021/08/12 01:15:07;;;;;;;8.38;5.00;;;16.60;91.00;;;;;;2610888;39;20535;-71
2021/08/12 01:18:02;;;;;;;7.50;5.03;;;16.60;90.60;;;;;;2609156;54;20359;-70
2021/08/12 01:20:40;;;;;;;7.93;5.10;;;16.60;90.30;;;;;;2609721;46;20547;-70
2021/08/12 01:23:12;;;;;;;6.68;5.40;;;16.50;90.40;;;;;;2610197;51;20037;-70
2021/08/12 01:25:40;;;;;;;7.75;5.72;;;16.50;90.60;;;;;;2609299;54;20578;-70
2021/08/12 01:28:20;;;;;;;8.00;6.05;;;16.50;90.80;;;;;;2610375;54;20034;-70
2021/08/12 01:31:25;;;;;;;8.02;6.28;;;16.40;90.80;;;;;;2608980;54;20038;-71
2021/08/12 01:34:04;;;;;;;8.43;6.13;;;16.40;91.00;;;;;;2608913;54;20034;-70
2021/08/12 01:36:35;;;;;;;7.45;6.70;;;16.40;91.10;;;;;;2609182;54;20027;-69
2021/08/12 01:39:05;;;;;;;8.50;6.65;;;16.40;91.20;;;;;;2609587;54;20038;-69
2021/08/12 01:41:32;;;;;;;7.90;6.38;;;16.50;91.60;;;;;;2610326;39;20388;-69
2021/08/12 01:44:00;;;;;;;8.48;6.70;;;16.50;91.30;;;;;;2608801;54;20042;-70
2021/08/12 01:46:28;;;;;;;6.97;6.20;;;16.50;91.50;;;;;;2609419;47;20095;-70
2021/08/12 01:48:56;;;;;;;7.07;5.88;;;16.50;91.40;;;;;;2609323;54;20038;-71
2021/08/12 01:51:25;;;;;;;7.20;5.15;;;16.40;90.80;;;;;;2609367;54;20026;-70
2021/08/12 01:53:52;;;;;;;8.93;4.78;;;16.40;90.50;;;;;;2609408;47;20035;-69
2021/08/12 01:56:20;;;;;;;6.78;5.15;;;16.30;90.20;;;;;;2610164;54;20126;-69
2021/08/12 01:58:47;;;;;;;6.47;5.03;;;16.30;90.20;;;;;;2610477;54;20033;-69
2021/08/12 02:01:14;;;;;;;5.00;4.50;;;16.20;90.10;;;;;;2609043;39;20499;-69
2021/08/12 02:03:41;;;;;;;4.40;3.88;;;16.20;90.00;;;;;;2610412;54;20034;-69
2021/08/12 02:06:08;;;;;;;7.10;4.80;;;16.10;90.20;;;;;;2609158;47;20038;-70
2021/08/12 02:08:34;;;;;;;5.70;4.13;;;16.10;90.40;;;;;;2609387;54;20033;-69
2021/08/12 02:11:01;;;;;;;4.75;4.32;;;16.00;90.40;;;;;;2609388;54;20053;-68
2021/08/12 02:13:33;;;;;;;5.53;4.95;;;16.00;90.30;;;;;;2609111;47;20029;-69
2021/08/12 02:15:58;;;;;;;5.82;4.88;;;16.00;90.30;;;;;;2609552;54;20027;-69
2021/08/12 02:18:25;;;;;;;6.40;5.03;;;16.00;90.20;;;;;;2609361;39;20774;-70
2021/08/12 02:21:17;;;;;;;5.25;4.75;;;15.90;90.10;;;;;;2609269;54;20146;-69
2021/08/12 02:23:59;;;;;;;4.60;4.00;;;15.90;90.20;;;;;;2609369;54;20042;-69
2021/08/12 02:26:34;;;;;;;6.10;4.80;;;15.90;90.20;;;;;;2609332;39;20474;-70
2021/08/12 02:29:01;;;;;;;5.30;4.80;;;15.80;90.20;;;;;;2610072;39;20499;-69
2021/08/12 02:31:29;;;;;;;5.43;4.47;;;15.80;90.40;;;;;;2608627;54;20027;-70
2021/08/12 02:33:56;;;;;;;5.18;4.68;;;15.70;90.50;;;;;;2609508;54;20562;-69
2021/08/12 02:36:24;;;;;;;6.85;5.35;;;15.70;90.60;;;;;;2609578;39;20858;-70
2021/08/12 02:38:51;;;;;;;5.53;5.03;;;15.70;90.60;;;;;;2609643;54;20042;-69
2021/08/12 02:41:19;;;;;;;6.53;5.38;;;15.70;90.50;;;;;;2609513;54;20138;-69
2021/08/12 02:43:46;;;;;;;5.90;4.93;;;15.70;90.40;;;;;;2608834;47;20038;-69
2021/08/12 02:46:16;;;;;;;7.80;4.38;;;15.60;90.40;;;;;;2609226;54;20031;-69
2021/08/12 02:48:42;;;;;;;12.95;4.90;;;15.60;90.40;;;;;;2609674;54;20656;-69
2021/08/12 02:51:09;;;;;;;11.02;4.93;;;15.60;90.20;;;;;;2609117;47;20045;-69
2021/08/12 02:53:35;;;;;;;4.40;4.00;;;15.60;90.00;;;;;;2609147;54;20042;-70
2021/08/12 02:56:06;;;;;;;5.97;4.25;;;15.60;89.40;;;;;;2609097;54;20042;-69
2021/08/12 02:58:36;;;;;;;6.50;4.65;;;15.50;89.10;;;;;;2610725;39;20537;-70
2021/08/12 03:01:03;;;;;;;5.30;4.60;;;15.40;88.70;;;;;;2608433;47;20570;-69
2021/08/12 03:03:30;;;;;;;6.38;4.40;;;15.30;89.20;;;;;;2609166;47;20054;-69
2021/08/12 03:05:58;;;;;;;8.50;5.38;;;15.30;89.50;;;;;;2609148;47;20581;-70
2021/08/12 03:08:25;;;;;;;8.25;4.78;;;15.30;90.00;;;;;;2608427;48;20038;-69
2021/08/12 03:10:53;;;;;;;9.35;4.97;;;15.20;90.10;;;;;;2609086;54;20031;-69
2021/08/12 03:13:20;;;;;;;5.57;5.05;;;15.20;90.10;;;;;;2608353;47;20547;-68
2021/08/12 03:15:46;;;;;;;7.68;5.30;;;15.10;90.20;;;;;;2609299;47;20030;-70
2021/08/12 03:18:12;;;;;;;6.53;5.35;;;15.10;90.30;;;;;;2609393;54;20038;-70
2021/08/12 03:20:41;;;;;;;6.82;5.20;;;15.10;90.50;;;;;;2608386;47;20034;-69
2021/08/12 03:23:07;;;;;;;8.07;5.47;;;15.10;90.60;;;;;;2609856;39;20486;-69
2021/08/12 03:25:33;;;;;;;7.25;5.55;;;15.10;90.60;;;;;;2608517;54;20570;-70
2021/08/12 03:27:59;;;;;;;5.53;5.03;;;15.10;90.70;;;;;;2609257;54;20027;-69
2021/08/12 03:30:25;;;;;;;5.95;5.35;;;15.10;90.90;;;;;;2609058;54;20145;-69
2021/08/12 03:32:52;;;;;;;7.60;6.38;;;15.20;91.20;;;;;;2609592;39;20363;-69
2021/08/12 03:35:18;;;;;;;7.28;6.40;;;15.20;91.50;;;;;;2610209;54;20034;-69
2021/08/12 03:37:46;;;;;;;6.97;6.07;;;15.30;91.80;;;;;;2609401;47;20026;-70
2021/08/12 03:40:12;;;;;;;7.35;5.88;;;15.30;91.70;;;;;;2609874;54;20037;-69
2021/08/12 03:42:38;;;;;;;5.88;5.30;;;15.30;91.50;;;;;;2610818;54;20031;-69
2021/08/12 03:45:05;;;;;;;8.35;6.05;;;15.30;91.40;;;;;;2609505;54;20034;-69
2021/08/12 03:47:31;;;;;;;6.43;5.80;;;15.30;91.40;;;;;;2610670;39;20231;-70
2021/08/12 03:49:58;;;;;;;8.80;6.93;;;15.30;91.60;;;;;;2609338;54;20026;-69
2021/08/12 03:52:24;;;;;;;6.18;5.57;;;15.40;91.70;;;;;;2609905;54;20073;-69
2021/08/12 03:54:49;;;;;;;5.68;5.10;;;15.40;91.60;;;;;;2610135;47;20562;-69
2021/08/12 03:57:15;;;;;;;9.23;5.25;;;15.40;91.30;;;;;;2609573;54;20078;-69
2021/08/12 03:59:41;;;;;;;6.70;4.75;;;15.40;91.20;;;;;;2609830;54;20034;-69
2021/08/12 04:02:07;;;;;;;6.68;5.80;;;15.40;91.10;;;;;;2609859;54;20154;-69
2021/08/12 04:04:34;;;;;;;5.55;4.95;;;15.40;90.90;;;;;;2609982;47;20033;-70
2021/08/12 04:06:59;;;;;;;5.45;4.80;;;15.40;90.70;;;;;;2610134;39;20451;-69
2021/08/12 04:09:27;;;;;;;5.18;4.65;;;15.40;90.80;;;;;;2609035;54;20030;-69
2021/08/12 04:11:52;;;;;;;5.82;4.60;;;15.30;90.80;;;;;;2610584;54;20038;-69
2021/08/12 04:14:18;;;;;;;6.20;5.53;;;15.30;90.80;;;;;;2609186;54;20037;-69
2021/08/12 04:16:44;;;;;;;5.85;4.68;;;15.30;90.70;;;;;;2610536;54;20040;-69
2021/08/12 04:19:12;;;;;;;7.45;4.57;;;15.30;90.60;;;;;;2609831;54;20030;-70
2021/08/12 04:21:38;;;;;;;7.80;5.05;;;15.30;90.70;;;;;;2609196;54;20126;-69
2021/08/12 04:24:04;;;;;;;5.70;4.75;;;15.30;90.80;;;;;;2610060;54;20891;-69
2021/08/12 04:26:30;;;;;;;6.28;4.95;;;15.30;90.70;;;;;;2610118;54;20040;-69
2021/08/12 04:28:57;;;;;;;7.03;4.75;;;15.40;90.60;;;;;;2610235;54;20030;-69
2021/08/12 04:31:23;;;;;;;5.88;4.88;;;15.40;90.70;;;;;;2609853;47;20578;-69
2021/08/12 04:33:49;;;;;;;6.13;4.88;;;15.40;90.90;;;;;;2609070;54;20033;-69
2021/08/12 04:36:16;;;;;;;5.65;4.97;;;15.40;91.10;;;;;;2609715;51;20027;-69
2021/08/12 04:38:42;;;;;;;6.07;5.28;;;15.40;91.00;;;;;;2608735;54;20030;-70
2021/08/12 04:41:08;;;;;;;8.02;5.60;;;15.40;91.00;;;;;;2609521;54;20035;-69
2021/08/12 04:43:35;;;;;;;5.55;5.00;;;15.40;91.10;;;;;;2610375;54;20906;-70
2021/08/12 04:46:02;;;;;;;6.10;5.07;;;15.40;91.10;;;;;;2608922;54;20038;-69
2021/08/12 04:48:28;;;;;;;6.55;4.85;;;15.40;91.00;;;;;;2610697;39;20447;-69
2021/08/12 04:50:53;;;;;;;5.20;4.70;;;15.40;90.60;;;;;;2609147;54;20150;-71
2021/08/12 04:53:19;;;;;;;9.32;5.60;;;15.40;90.50;;;;;;2609002;54;20125;-69
2021/08/12 04:55:46;;;;;;;8.02;4.57;;;15.40;90.40;;;;;;2609475;54;20030;-69
2021/08/12 04:58:11;;;;;;;7.00;4.90;;;15.40;90.40;;;;;;2609328;54;20073;-69
2021/08/12 05:00:37;;;;;;;6.15;5.55;;;15.40;90.50;;;;;;2609233;54;20936;-69
2021/08/12 05:03:04;;;;;;;9.07;6.18;;;15.50;90.90;;;;;;2608874;54;20033;-69
2021/08/12 05:05:32;;;;;;;7.40;6.60;;;15.50;91.20;;;;;;2609571;54;20119;-69
2021/08/12 05:07:58;;;;;;;8.00;7.20;;;15.60;91.50;;;;;;2609965;54;20038;-70
2021/08/12 05:10:24;;;;;;;7.80;6.97;;;15.60;91.70;;;;;;2608549;54;20034;-70
2021/08/12 05:12:53;;;;;;;8.30;7.47;;;15.70;91.80;;;;;;2609270;47;20563;-70
2021/08/12 05:15:19;;;;;;;8.70;7.80;;;15.70;91.90;;;;;;2608611;39;20518;-69
2021/08/12 05:17:45;;;;;;;9.82;7.95;;;15.90;91.90;;;;;;2610109;54;20193;-71
2021/08/12 05:20:12;;;;;;;9.55;7.55;;;15.90;92.00;;;;;;2609314;54;20026;-70
2021/08/12 05:22:38;;;;;;;10.68;7.97;;;16.00;92.00;;;;;;2608692;54;20072;-70
2021/08/12 05:25:05;;;;;;;9.00;7.53;;;16.10;92.20;;;;;;2610035;54;21209;-69
2021/08/12 05:27:31;;;;;;;9.07;7.95;;;16.20;92.20;;;;;;2609131;54;20776;-70
2021/08/12 05:29:56;;;;;;;11.90;8.82;;;16.30;92.30;;;;;;2609056;54;20061;-69
2021/08/12 05:32:22;;;;;;;10.65;9.25;;;16.40;92.40;;;;;;2610045;54;20031;-69
2021/08/12 05:34:48;;;;;;;9.43;8.38;;;16.50;92.40;;;;;;2609496;39;20413;-69
2021/08/12 05:37:14;;;;;;;8.93;8.02;;;16.60;92.40;;;;;;2610788;39;20421;-69
2021/08/12 05:39:40;;;;;;;9.80;8.32;;;16.70;92.40;;;;;;2609492;54;20038;-69
2021/08/12 05:42:05;;;;;;;10.25;7.55;;;16.80;92.50;;;;;;2609710;46;20042;-69
2021/08/12 05:44:31;;;;;;;8.60;7.43;;;16.90;92.50;;;;;;2609315;54;20051;-70
2021/08/12 05:46:57;;;;;;;9.07;8.18;;;17.00;92.50;;;;;;2609221;47;20774;-69
2021/08/12 05:49:24;;;;;;;9.50;7.55;;;17.10;92.40;;;;;;2609626;54;20039;-69
2021/08/12 05:51:52;;;;;;;8.15;7.35;;;17.10;92.40;;;;;;2608532;46;20026;-69
2021/08/12 05:54:19;;;;;;;7.47;6.78;;;17.20;92.40;;;;;;2609200;47;20033;-69
2021/08/12 05:56:45;;;;;;;8.70;7.28;;;17.40;92.40;;;;;;2609734;54;20030;-70
2021/08/12 05:59:11;;;;;;;8.55;7.60;;;17.40;92.30;;;;;;2608710;54;20073;-69
2021/08/12 06:01:36;;;;;;;8.82;7.10;;;17.50;92.10;;;;;;2609922;39;20420;-69
2021/08/12 06:04:02;;;;;;;8.70;7.47;;;17.60;92.10;;;;;;2608420;54;20045;-70
2021/08/12 06:06:30;;;;;;;8.32;6.90;;;17.70;92.00;;;;;;2608561;54;20053;-69
2021/08/12 06:08:56;;;;;;;7.68;6.97;;;17.80;91.80;;;;;;2608976;49;20618;-71
2021/08/12 06:11:22;;;;;;;9.80;6.50;;;17.90;91.70;;;;;;2608963;54;20052;-70
2021/08/12 06:13:47;;;;;;;6.72;6.03;;;18.00;91.60;;;;;;2609564;54;20062;-70
2021/08/12 06:16:13;;;;;;;7.60;6.10;;;18.00;91.40;;;;;;2608991;54;20061;-70
2021/08/12 06:18:39;;;;;;;6.90;6.20;;;18.10;91.30;;;;;;2609317;54;20070;-69
2021/08/12 06:21:05;;;;;;;9.63;6.50;;;18.20;91.20;;;;;;2609182;54;20030;-69
2021/08/12 06:23:31;;;;;;;8.27;7.22;;;18.30;91.20;;;;;;2608704;54;20064;-69
2021/08/12 06:25:58;;;;;;;6.95;6.25;;;18.30;91.00;;;;;;2609208;47;20649;-70
2021/08/12 06:28:25;;;;;;;7.43;6.43;;;18.40;90.60;;;;;;2608602;54;20034;-69
2021/08/12 06:30:52;;;;;;;7.85;6.25;;;18.50;90.40;;;;;;2608631;54;20038;-69
2021/08/12 06:33:18;;;;;;;6.72;6.03;;;18.60;90.00;;;;;;2609638;54;20038;-70
2021/08/12 06:35:44;;;;;;;6.82;5.57;;;18.60;89.80;;;;;;2608436;51;20050;-70
2021/08/12 06:38:09;;;;;;;6.05;5.45;;;18.70;89.50;;;;;;2610248;54;20062;-72
2021/08/12 06:40:37;;;;;;;6.55;5.95;;;18.80;89.50;;;;;;2609440;54;20042;-70
2021/08/12 06:43:04;;;;;;;6.03;5.43;;;18.90;89.40;;;;;;2609271;47;21024;-69
2021/08/12 06:45:46;;;;;;;7.05;5.32;;;19.00;88.90;;;;;;2609054;39;20457;-69
2021/08/12 06:48:12;;;;;;;5.22;4.72;;;19.20;88.20;;;;;;2609074;54;20077;-69
2021/08/12 06:50:38;;;;;;;5.63;5.07;;;19.30;87.70;;;;;;2608824;54;20904;-69
2021/08/12 06:53:04;;;;;;;7.65;5.28;;;19.40;87.50;;;;;;2609104;54;20046;-71
2021/08/12 06:55:30;;;;;;;5.25;4.82;;;19.40;86.80;;;;;;2608855;54;20061;-71
2021/08/12 06:57:56;;;;;;;5.50;5.00;;;19.60;86.00;;;;;;2608763;54;20030;-70
2021/08/12 07:00:23;;;;;;;6.47;5.00;;;19.60;85.60;;;;;;2608555;51;20146;-70
2021/08/12 07:02:49;;;;;;;5.53;4.97;;;19.70;85.60;;;;;;2609374;54;20038;-70
2021/08/12 07:05:15;;;;;;;5.93;5.30;;;19.70;85.30;;;;;;2608887;54;20038;-69
2021/08/12 07:07:41;;;;;;;16.70;12.25;;;19.80;85.30;;;;;;2610265;54;20033;-70
2021/08/12 07:10:07;;;;;;;21.17;11.95;;;19.90;83.20;;;;;;2609012;54;20031;-71
2021/08/12 07:12:34;;;;;;;9.75;7.30;;;20.00;83.30;;;;;;2609852;47;20065;-71
2021/08/12 07:15:00;;;;;;;4.78;3.88;;;20.10;81.60;;;;;;2610005;47;20023;-71
2021/08/12 07:17:28;;;;;;;14.48;9.45;;;20.40;79.00;;;;;;2609458;54;20069;-70
2021/08/12 07:19:54;;;;;;;14.27;9.35;;;20.50;78.20;;;;;;2609856;54;20078;-68
2021/08/12 07:22:20;;;;;;;5.15;3.88;;;20.60;78.50;;;;;;2610880;39;20565;-70
2021/08/12 07:24:47;;;;;;;7.68;4.93;;;20.80;74.40;;;;;;2610084;54;20050;-71
2021/08/12 07:27:12;;;;;;;8.30;3.72;;;20.80;73.80;;;;;;2611136;39;20435;-70
2021/08/12 07:29:38;;;;;;;5.07;3.60;;;21.00;73.30;;;;;;2609954;54;20031;-70
2021/08/12 07:32:05;;;;;;;3.20;2.90;;;21.10;73.70;;;;;;2609819;54;20034;-68
2021/08/12 07:34:38;;;;;;;4.75;3.80;;;21.20;72.70;;;;;;2609404;54;20041;-70
2021/08/12 07:37:05;;;;;;;5.25;3.15;;;21.20;73.30;;;;;;2610032;54;20027;-70
2021/08/12 07:39:31;;;;;;;4.60;3.63;;;21.50;72.10;;;;;;2609965;54;20035;-70
2021/08/12 07:41:57;;;;;;;3.13;2.83;;;21.70;72.60;;;;;;2609006;47;20026;-70
2021/08/12 07:44:23;;;;;;;4.50;3.10;;;21.70;71.20;;;;;;2610786;54;20057;-71
2021/08/12 07:46:48;;;;;;;3.45;3.15;;;21.80;71.20;;;;;;2609042;54;20069;-70
2021/08/12 07:49:14;;;;;;;3.55;3.20;;;21.80;71.40;;;;;;2610106;39;20570;-69
2021/08/12 07:51:40;;;;;;;8.77;6.43;;;21.90;69.20;;;;;;2610648;54;20590;-70
2021/08/12 07:54:05;;;;;;;5.25;2.80;;;21.90;67.80;;;;;;2610128;54;20030;-70
2021/08/12 07:56:31;;;;;;;3.63;3.00;;;22.00;68.60;;;;;;2611006;39;20443;-70
2021/08/12 07:58:57;;;;;;;5.15;4.25;;;22.10;68.70;;;;;;2610018;54;20034;-70
2021/08/12 08:01:22;;;;;;;11.18;6.50;;;22.20;69.70;;;;;;2608874;54;20038;-69
2021/08/12 08:03:48;;;;;;;5.80;4.20;;;22.30;68.40;;;;;;2609935;54;20586;-71
2021/08/12 08:06:14;;;;;;;4.25;3.40;;;22.40;66.50;;;;;;2610007;54;20742;-70
2021/08/12 08:08:40;;;;;;;10.73;5.78;;;22.50;65.50;;;;;;2610795;54;20145;-71
2021/08/12 08:11:06;;;;;;;9.35;6.32;;;22.50;66.40;;;;;;2609929;54;20038;-70
2021/08/12 08:13:32;;;;;;;5.55;3.83;;;22.50;65.10;;;;;;2610448;54;20114;-70
2021/08/12 08:15:58;;;;;;;5.80;3.63;;;22.70;65.70;;;;;;2610723;54;20026;-70
2021/08/12 08:18:26;;;;;;;3.35;2.90;;;22.70;64.50;;;;;;2610127;54;20141;-70
2021/08/12 08:20:52;;;;;;;6.43;4.25;;;22.90;62.40;;;;;;2610172;54;20031;-70
2021/08/12 08:23:18;;;;;;;4.15;2.47;;;22.90;63.00;;;;;;2610164;54;20042;-71
2021/08/12 08:25:45;;;;;;;2.67;2.15;;;23.10;61.10;;;;;;2610627;54;20042;-78
2021/08/12 08:28:10;;;;;;;3.70;2.50;;;23.10;57.70;;;;;;2610455;54;20104;-70
2021/08/12 08:30:40;;;;;;;7.57;4.47;;;23.10;60.00;;;;;;2609785;54;20046;-71
2021/08/12 08:33:08;;;;;;;3.90;2.20;;;23.00;61.40;;;;;;2608992;54;20035;-70
2021/08/12 08:35:34;;;;;;;5.55;2.67;;;23.20;59.50;;;;;;2609630;39;20544;-70
2021/08/12 08:38:00;;;;;;;2.75;2.42;;;23.30;58.60;;;;;;2610457;54;20031;-70
2021/08/12 08:40:27;;;;;;;3.55;2.33;;;23.30;58.30;;;;;;2610132;54;20030;-70
2021/08/12 08:42:53;;;;;;;3.00;2.30;;;23.40;59.60;;;;;;2609318;54;20061;-70
2021/08/12 08:45:25;;;;;;;2.92;2.47;;;23.30;59.80;;;;;;2610041;54;20045;-70
2021/08/12 08:47:52;;;;;;;4.88;2.90;;;23.30;59.00;;;;;;2609475;54;20038;-70
2021/08/12 08:50:19;;;;;;;4.68;2.58;;;23.40;61.50;;;;;;2609560;54;20047;-70
2021/08/12 08:52:47;;;;;;;4.95;2.40;;;23.50;59.60;;;;;;2610865;54;20061;-70
2021/08/12 08:55:21;;;;;;;6.00;2.63;;;23.70;58.80;;;;;;2609428;47;20684;-70
2021/08/12 08:57:51;;;;;;;5.25;2.35;;;23.70;58.90;;;;;;2610330;54;20038;-71
2021/08/12 09:00:18;;;;;;;2.60;2.40;;;23.80;58.80;;;;;;2609607;54;20057;-70
2021/08/12 09:02:47;;;;;;;5.13;2.45;;;23.80;58.80;;;;;;2610097;54;20062;-71
2021/08/12 09:05:14;;;;;;;3.20;2.50;;;23.90;58.90;;;;;;2609570;54;20070;-70
2021/08/12 09:07:41;;;;;;;3.33;2.75;;;24.00;56.30;;;;;;2609740;54;20033;-71
2021/08/12 09:10:08;;;;;;;8.52;5.40;;;24.10;56.70;;;;;;2607957;54;20566;-70
2021/08/12 09:12:36;;;;;;;4.28;3.00;;;24.20;56.20;;;;;;2610099;39;20158;-71
2021/08/12 09:15:07;;;;;;;3.58;2.50;;;24.20;55.70;;;;;;2610359;54;20069;-68
2021/08/12 09:17:33;;;;;;;4.05;2.33;;;24.20;55.30;;;;;;2609512;54;20054;-72
2021/08/12 09:20:15;;;;;;;5.55;2.60;;;24.20;54.60;;;;;;2609765;54;20034;-70
2021/08/12 09:23:04;;;;;;;4.13;2.78;;;24.30;57.50;;;;;;2609317;54;20035;-71
2021/08/12 09:25:34;;;;;;;4.95;2.25;;;24.30;54.90;;;;;;2608364;54;20180;-70
2021/08/12 09:28:15;;;;;;;3.92;2.85;;;24.40;54.00;;;;;;2609193;54;20166;-70
2021/08/12 09:30:43;;;;;;;3.38;2.03;;;24.50;52.80;;;;;;2608531;54;20046;-70
2021/08/12 09:33:17;;;;;;;4.30;1.92;;;24.60;53.50;;;;;;2609423;54;20062;-69
2021/08/12 09:35:43;;;;;;;2.90;2.10;;;24.70;54.20;;;;;;2608361;54;20061;-70
2021/08/12 09:38:13;;;;;;;2.95;2.35;;;24.80;54.40;;;;;;2609357;54;20941;-70
2021/08/12 09:40:40;;;;;;;4.20;2.67;;;24.90;54.10;;;;;;2609703;39;20709;-71
2021/08/12 09:43:08;;;;;;;2.65;2.15;;;24.90;54.70;;;;;;2609172;39;20880;-71
2021/08/12 09:45:35;;;;;;;3.90;2.30;;;25.00;53.30;;;;;;2610194;54;20930;-70
2021/08/12 09:48:16;;;;;;;6.85;3.97;;;25.10;51.60;;;;;;2609613;54;20034;-70
2021/08/12 09:50:57;;;;;;;3.60;2.60;;;25.10;52.60;;;;;;2610327;54;20030;-70
2021/08/12 09:53:23;;;;;;;4.05;2.90;;;25.00;53.60;;;;;;2610277;54;20069;-70
2021/08/12 09:55:50;;;;;;;2.47;2.28;;;25.10;52.00;;;;;;2610229;54;20034;-71
2021/08/12 09:58:18;;;;;;;3.17;2.55;;;25.30;52.40;;;;;;2610298;54;20037;-75
2021/08/12 10:00:48;;;;;;;3.20;2.60;;;25.40;51.60;;;;;;2609600;54;20030;-71
2021/08/12 10:03:22;;;;;;;2.50;2.00;;;25.50;52.20;;;;;;2609231;51;20038;-72
2021/08/12 10:05:49;;;;;;;9.00;2.70;;;25.50;51.80;;;;;;2609466;54;20039;-71
2021/08/12 10:08:34;;;;;;;3.95;2.67;;;25.50;51.80;;;;;;2609867;54;20174;-71
2021/08/12 10:11:26;;;;;;;4.78;2.75;;;25.40;50.40;;;;;;2609853;31;20679;-71
2021/08/12 10:13:53;;;;;;;3.60;3.22;;;25.40;48.30;;;;;;2608900;54;20129;-70
2021/08/12 10:16:21;;;;;;;4.72;3.65;;;25.30;49.50;;;;;;2609079;47;20075;-70
2021/08/12 10:18:48;;;;;;;5.97;4.70;;;25.30;48.50;;;;;;2608792;54;20042;-70
2021/08/12 10:21:16;;;;;;;5.60;4.05;;;25.20;50.30;;;;;;2609382;54;20045;-70
2021/08/12 10:23:44;;;;;;;3.65;3.25;;;25.20;50.60;;;;;;2609433;54;20038;-69
2021/08/12 10:26:10;;;;;;;5.10;3.22;;;25.30;49.60;;;;;;2610016;54;20035;-70
2021/08/12 10:28:39;;;;;;;5.18;3.70;;;25.20;49.80;;;;;;2610092;54;20045;-69
2021/08/12 10:31:06;;;;;;;4.53;3.33;;;25.20;52.30;;;;;;2609639;54;20030;-71
2021/08/12 10:33:33;;;;;;;5.72;3.35;;;25.30;51.10;;;;;;2610221;54;20045;-71
2021/08/12 10:36:00;;;;;;;3.55;2.45;;;25.40;52.10;;;;;;2609871;54;20030;-71
2021/08/12 10:38:26;;;;;;;3.90;3.05;;;25.50;50.50;;;;;;2610265;54;20145;-70
2021/08/12 10:40:53;;;;;;;4.35;3.90;;;25.50;50.70;;;;;;2610964;39;20554;-72
2021/08/12 10:43:26;;;;;;;4.53;2.90;;;25.50;50.70;;;;;;2610628;54;20030;-69
2021/08/12 10:46:02;;;;;;;5.47;3.10;;;25.50;51.20;;;;;;2611113;54;20582;-71
2021/08/12 10:48:30;;;;;;;3.42;2.85;;;25.30;50.20;;;;;;2609945;54;20041;-74
2021/08/12 10:51:10;;;;;;;3.17;2.88;;;25.30;50.10;;;;;;2610448;54;20668;-77
2021/08/12 10:53:38;;;;;;;5.13;3.67;;;25.40;49.90;;;;;;2608632;54;20034;-72
2021/08/12 10:56:09;;;;;;;5.03;3.45;;;25.40;51.50;;;;;;2610556;54;20030;-74
2021/08/12 10:58:37;;;;;;;3.80;3.05;;;25.40;51.60;;;;;;2610521;54;20069;-73
2021/08/12 11:01:09;;;;;;;4.13;2.80;;;25.50;50.60;;;;;;2609180;47;20706;-70
2021/08/12 11:03:47;;;;;;;3.70;2.70;;;25.50;48.40;;;;;;2610365;54;20066;-70
2021/08/12 11:06:19;;;;;;;2.63;2.40;;;25.50;51.70;;;;;;2609311;54;20171;-71
2021/08/12 11:08:57;;;;;;;3.30;2.55;;;25.40;49.00;;;;;;2610538;54;20045;-71
2021/08/12 11:11:25;;;;;;;5.18;2.78;;;25.50;49.20;;;;;;2610146;54;20042;-71
2021/08/12 11:14:05;;;;;;;6.93;2.88;;;25.50;50.00;;;;;;2610936;54;20034;-71
2021/08/12 11:16:41;;;;;;;5.05;3.05;;;25.70;48.90;;;;;;2610894;54;20038;-72
2021/08/12 11:19:28;;;;;;;3.38;2.90;;;25.80;49.50;;;;;;2609547;54;20030;-71
2021/08/12 11:21:55;;;;;;;3.50;2.75;;;25.70;51.70;;;;;;2610573;54;20034;-72
2021/08/12 11:24:23;;;;;;;2.88;2.60;;;25.90;50.90;;;;;;2609648;54;20152;-70
2021/08/12 11:26:49;;;;;;;4.25;3.00;;;26.00;48.70;;;;;;2610875;39;20720;-71
2021/08/12 11:29:42;;;;;;;4.22;2.63;;;25.90;47.50;;;;;;2609700;54;20030;-70
2021/08/12 11:32:14;;;;;;;2.70;2.47;;;25.90;48.70;;;;;;2609548;54;20061;-72
2021/08/12 11:34:45;;;;;;;4.35;2.65;;;26.00;49.90;;;;;;2610491;54;20031;-71
2021/08/12 11:37:17;;;;;;;3.30;2.78;;;26.20;48.20;;;;;;2610297;39;20446;-71
2021/08/12 11:39:51;;;;;;;3.75;3.00;;;26.20;48.60;;;;;;2609749;54;20880;-72
2021/08/12 11:42:22;;;;;;;2.58;2.38;;;26.20;48.80;;;;;;2609879;54;20062;-71
2021/08/12 11:44:49;;;;;;;2.60;2.33;;;26.20;51.00;;;;;;2610765;54;20038;-71
2021/08/12 11:47:15;;;;;;;5.43;2.97;;;26.20;48.90;;;;;;2609987;54;21232;-71
2021/08/12 11:49:50;;;;;;;5.40;3.47;;;26.10;49.50;;;;;;2610044;54;20038;-71
2021/08/12 11:52:27;;;;;;;4.10;3.70;;;26.20;48.20;;;;;;2609753;54;20030;-75
2021/08/12 11:54:57;;;;;;;5.30;2.90;;;26.30;48.30;;;;;;2610022;54;20030;-71
2021/08/12 11:57:50;;;;;;;4.82;2.60;;;26.30;47.80;;;;;;2610681;54;20042;-71
2021/08/12 12:00:17;;;;;;;4.25;3.05;;;26.30;48.30;;;;;;2609313;54;20038;-70
2021/08/12 12:02:56;;;;;;;6.10;2.85;;;26.20;49.10;;;;;;2609996;54;20034;-70
2021/08/12 12:05:23;;;;;;;3.05;2.70;;;26.20;48.70;;;;;;2610121;54;20030;-70
2021/08/12 12:07:54;;;;;;;3.42;2.72;;;26.30;48.30;;;;;;2610679;54;20031;-71
2021/08/12 12:10:26;;;;;;;10.82;3.08;;;26.30;48.30;;;;;;2610201;54;20054;-71
2021/08/12 12:12:53;;;;;;;4.82;2.63;;;26.30;49.40;;;;;;2610404;54;20034;-71
2021/08/12 12:15:57;;;;;;;3.45;2.92;;;26.20;49.00;;;;;;2609096;54;20179;-71
2021/08/12 12:18:30;;;;;;;3.25;2.95;;;26.20;48.50;;;;;;2608208;54;20062;-70
2021/08/12 12:21:02;;;;;;;3.90;2.58;;;26.20;48.50;;;;;;2608855;54;20137;-70
2021/08/12 12:23:28;;;;;;;5.03;2.83;;;26.30;47.30;;;;;;2608803;54;20146;-71
2021/08/12 12:25:54;;;;;;;3.67;2.78;;;26.30;48.20;;;;;;2609940;54;20031;-71
2021/08/12 12:28:20;;;;;;;3.92;3.00;;;26.30;47.00;;;;;;2610340;54;20038;-71
2021/08/12 12:30:47;;;;;;;2.97;2.67;;;26.20;49.30;;;;;;2609233;54;20042;-70
2021/08/12 12:33:16;;;;;;;4.18;2.58;;;26.30;50.10;;;;;;2609603;54;20038;-71
2021/08/12 12:35:47;;;;;;;4.65;3.10;;;26.30;49.40;;;;;;2609614;54;20045;-72
2021/08/12 12:38:18;;;;;;;3.47;2.60;;;26.40;48.80;;;;;;2609861;54;20030;-70
2021/08/12 12:40:45;;;;;;;3.67;2.63;;;26.40;47.80;;;;;;2610129;54;20045;-71
2021/08/12 12:43:11;;;;;;;5.35;2.63;;;26.60;48.10;;;;;;2609687;54;20061;-72
2021/08/12 12:45:49;;;;;;;2.75;2.28;;;26.70;48.40;;;;;;2610004;54;20030;-71
2021/08/12 12:48:16;;;;;;;4.30;2.70;;;26.90;45.70;;;;;;2609405;54;20030;-71
2021/08/12 12:50:50;;;;;;;2.88;2.60;;;27.00;47.60;;;;;;2609298;54;20078;-71
2021/08/12 12:53:32;;;;;;;3.40;2.67;;;27.20;48.50;;;;;;2608743;54;20037;-71